createdAt,value
2023-03-19T00:01:15.135Z,100826.56
2023-03-19T00:03:43.409Z,100823.97
2023-03-19T00:06:12.305Z,100822.90
2023-03-19T00:08:40.985Z,100818.31
2023-03-19T00:11:09.859Z,100819.42
2023-03-19T00:13:38.832Z,100814.19
2023-03-19T00:16:08.898Z,100812.82
2023-03-19T00:18:37.544Z,100811.59
2023-03-19T00:21:06.179Z,100810.38
2023-03-19T00:23:34.698Z,100804.02
2023-03-19T00:26:04.067Z,100802.02
2023-03-19T00:28:33.119Z,100799.14
2023-03-19T00:31:08.912Z,100801.02
2023-03-19T00:33:37.887Z,100794.14
2023-03-19T00:36:07.095Z,100794.97
2023-03-19T00:38:36.184Z,100791.14
2023-03-19T00:41:07.664Z,100792.09
2023-03-19T00:43:36.572Z,100794.44
2023-03-19T00:46:04.909Z,100796.80
2023-03-19T00:48:35.410Z,100802.25
2023-03-19T00:51:05.768Z,100803.10
2023-03-19T00:53:37.296Z,100803.08
2023-03-19T00:56:06.681Z,100807.49
2023-03-19T00:58:35.286Z,100805.08
2023-03-19T01:01:04.557Z,100806.27
2023-03-19T01:03:33.245Z,100802.84
2023-03-19T01:06:01.495Z,100805.91
2023-03-19T01:08:31.330Z,100805.56
2023-03-19T01:11:10.113Z,100808.56
2023-03-19T01:13:38.807Z,100801.48
2023-03-19T01:16:07.347Z,100803.84
2023-03-19T01:18:35.901Z,100804.45
2023-03-19T01:21:05.021Z,100799.45
2023-03-19T01:23:33.586Z,100799.40
2023-03-19T01:26:03.192Z,100798.20
2023-03-19T01:28:32.296Z,100802.35
2023-03-19T01:31:01.279Z,100798.46
2023-03-19T01:33:37.719Z,100800.21
2023-03-19T01:36:13.278Z,100803.41
2023-03-19T01:39:16.873Z,100804.36
2023-03-19T01:41:45.795Z,100803.95
2023-03-19T01:44:34.596Z,100806.70
2023-03-19T01:47:21.649Z,100806.39
2023-03-19T01:50:25.261Z,100808.58
2023-03-19T01:53:17.905Z,100810.02
2023-03-19T01:55:52.836Z,100809.63
2023-03-19T01:58:44.764Z,100810.13
2023-03-19T02:01:25.323Z,100810.98
2023-03-19T02:03:53.581Z,100813.86
2023-03-19T02:06:30.433Z,100814.65
2023-03-19T02:09:00.751Z,100823.84
2023-03-19T02:11:29.744Z,100819.91
2023-03-19T02:13:59.610Z,100817.46
2023-03-19T02:16:27.758Z,100819.33
2023-03-19T02:18:56.900Z,100821.20
2023-03-19T02:21:25.413Z,100824.59
2023-03-19T02:24:12.087Z,100823.35
2023-03-19T02:26:48.907Z,100822.90
2023-03-19T02:29:18.252Z,100821.11
2023-03-19T02:31:47.415Z,100821.19
2023-03-19T02:34:21.900Z,100827.06
2023-03-19T02:37:02.621Z,100823.54
2023-03-19T02:39:32.082Z,100822.62
2023-03-19T02:42:00.470Z,100819.67
2023-03-19T02:44:29.043Z,100819.95
2023-03-19T02:47:02.416Z,100824.14
2023-03-19T02:49:32.212Z,100822.14
2023-03-19T02:52:01.017Z,100821.83
2023-03-19T02:54:29.487Z,100822.15
2023-03-19T02:56:58.298Z,100824.16
2023-03-19T02:59:29.121Z,100823.27
2023-03-19T03:01:58.273Z,100823.55
2023-03-19T03:04:27.317Z,100816.85
2023-03-19T03:06:56.797Z,100815.34
2023-03-19T03:09:25.038Z,100817.41
2023-03-19T03:11:53.436Z,100817.97
2023-03-19T03:14:24.913Z,100819.02
2023-03-19T03:16:53.969Z,100823.91
2023-03-19T03:19:23.598Z,100823.84
2023-03-19T03:21:53.450Z,100824.84
2023-03-19T03:24:22.208Z,100828.94
2023-03-19T03:26:50.724Z,100829.68
2023-03-19T03:29:22.199Z,100830.35
2023-03-19T03:31:51.369Z,100827.27
2023-03-19T03:34:27.393Z,100823.64
2023-03-19T03:36:57.920Z,100817.23
2023-03-19T03:39:26.728Z,100817.09
2023-03-19T03:41:54.931Z,100818.31
2023-03-19T03:44:23.897Z,100820.84
2023-03-19T03:46:57.092Z,100819.34
2023-03-19T03:49:25.981Z,100822.60
2023-03-19T03:51:54.903Z,100816.61
2023-03-19T03:54:23.491Z,100815.09
2023-03-19T03:56:51.870Z,100813.70
2023-03-19T03:59:21.905Z,100811.60
2023-03-19T04:01:50.520Z,100806.90
2023-03-19T04:04:20.351Z,100812.91
2023-03-19T04:06:48.902Z,100814.15
2023-03-19T04:09:31.369Z,100811.21
2023-03-19T04:12:00.518Z,100810.77
2023-03-19T04:14:34.758Z,100812.16
2023-03-19T04:17:03.349Z,100811.63
2023-03-19T04:19:32.034Z,100814.17
2023-03-19T04:22:04.062Z,100813.84
2023-03-19T04:24:34.804Z,100812.58
2023-03-19T04:27:03.421Z,100814.98
2023-03-19T04:29:32.184Z,100819.08
2023-03-19T04:32:01.058Z,100817.80
2023-03-19T04:34:29.501Z,100818.36
2023-03-19T04:36:58.100Z,100819.21
2023-03-19T04:39:26.658Z,100819.55
2023-03-19T04:41:59.697Z,100822.33
2023-03-19T04:44:32.365Z,100818.83
2023-03-19T04:47:02.032Z,100824.81
2023-03-19T04:49:33.906Z,100819.62
2023-03-19T04:52:02.572Z,100823.15
2023-03-19T04:54:30.856Z,100826.04
2023-03-19T04:56:59.444Z,100820.01
2023-03-19T04:59:34.112Z,100817.32
2023-03-19T05:02:02.736Z,100816.05
2023-03-19T05:04:31.841Z,100814.80
2023-03-19T05:07:04.453Z,100812.34
2023-03-19T05:09:33.070Z,100808.98
2023-03-19T05:12:01.438Z,100812.80
2023-03-19T05:14:34.347Z,100813.16
2023-03-19T05:17:23.486Z,100813.38
2023-03-19T05:20:12.894Z,100811.95
2023-03-19T05:22:46.819Z,100804.65
2023-03-19T05:25:16.126Z,100808.30
2023-03-19T05:27:46.055Z,100805.39
2023-03-19T05:30:24.581Z,100807.16
2023-03-19T05:33:12.853Z,100810.12
2023-03-19T05:35:43.126Z,100814.44
2023-03-19T05:38:18.244Z,100812.36
2023-03-19T05:40:51.748Z,100815.08
2023-03-19T05:43:25.146Z,100811.30
2023-03-19T05:45:54.349Z,100810.58
2023-03-19T05:48:26.735Z,100811.59
2023-03-19T05:50:55.164Z,100809.91
2023-03-19T05:53:24.142Z,100811.90
2023-03-19T05:56:12.581Z,100803.94
2023-03-19T05:58:50.565Z,100812.08
2023-03-19T06:01:21.358Z,100811.08
2023-03-19T06:03:49.783Z,100814.58
2023-03-19T06:06:18.017Z,100812.84
2023-03-19T06:08:48.506Z,100804.30
2023-03-19T06:11:16.732Z,100809.41
2023-03-19T06:13:50.948Z,100811.92
2023-03-19T06:16:20.927Z,100813.45
2023-03-19T06:18:53.467Z,100811.13
2023-03-19T06:21:29.692Z,100813.25
2023-03-19T06:24:00.043Z,100813.30
2023-03-19T06:26:34.622Z,100813.91
2023-03-19T06:29:06.278Z,100805.34
2023-03-19T06:31:34.645Z,100801.46
2023-03-19T06:34:09.290Z,100796.66
2023-03-19T06:36:42.583Z,100799.20
2023-03-19T06:39:16.826Z,100803.48
2023-03-19T06:41:46.734Z,100802.33
2023-03-19T06:44:20.423Z,100805.70
2023-03-19T06:46:48.798Z,100802.66
2023-03-19T06:49:17.410Z,100808.17
2023-03-19T06:51:45.780Z,100810.42
2023-03-19T06:54:13.854Z,100815.01
2023-03-19T06:56:42.754Z,100819.35
2023-03-19T06:59:16.140Z,100823.20
2023-03-19T07:01:46.892Z,100827.33
2023-03-19T07:04:16.051Z,100835.09
2023-03-19T07:06:45.849Z,100838.84
2023-03-19T07:09:14.566Z,100833.51
2023-03-19T07:11:42.844Z,100835.55
2023-03-19T07:14:13.664Z,100834.59
2023-03-19T07:16:42.409Z,100827.70
2023-03-19T07:19:11.685Z,100820.51
2023-03-19T07:21:40.113Z,100821.84
2023-03-19T07:24:08.345Z,100820.84
2023-03-19T07:26:37.623Z,100821.23
2023-03-19T07:29:06.515Z,100817.95
2023-03-19T07:31:34.964Z,100819.27
2023-03-19T07:34:06.293Z,100823.05
2023-03-19T07:36:34.986Z,100819.38
2023-03-19T07:39:03.971Z,100818.71
2023-03-19T07:41:32.850Z,100812.36
2023-03-19T07:44:01.772Z,100808.05
2023-03-19T07:46:34.213Z,100810.17
2023-03-19T07:49:02.587Z,100808.01
2023-03-19T07:51:30.762Z,100808.83
2023-03-19T07:54:06.977Z,100810.19
2023-03-19T07:56:35.502Z,100809.05
2023-03-19T07:59:04.682Z,100811.14
2023-03-19T08:01:33.173Z,100800.84
2023-03-19T08:04:01.637Z,100790.07
2023-03-19T08:06:31.988Z,100799.54
2023-03-19T08:09:00.234Z,100806.36
2023-03-19T08:11:30.117Z,100808.56
2023-03-19T08:13:58.348Z,100806.01
2023-03-19T08:16:26.652Z,100802.89
2023-03-19T08:18:55.717Z,100796.41
2023-03-19T08:21:24.073Z,100797.57
2023-03-19T08:23:52.901Z,100797.48
2023-03-19T08:26:21.169Z,100799.78
2023-03-19T08:28:50.016Z,100794.77
2023-03-19T08:31:18.629Z,100795.01
2023-03-19T08:33:47.118Z,100795.16
2023-03-19T08:36:15.610Z,100794.49
2023-03-19T08:38:43.803Z,100796.27
2023-03-19T08:41:12.568Z,100787.83
2023-03-19T08:43:41.135Z,100794.17
2023-03-19T08:46:09.640Z,100798.73
2023-03-19T08:48:41.372Z,100799.33
2023-03-19T08:51:12.132Z,100796.70
2023-03-19T08:53:40.344Z,100798.60
2023-03-19T08:56:08.566Z,100799.84
2023-03-19T08:58:42.907Z,100791.22
2023-03-19T09:01:12.083Z,100791.75
2023-03-19T09:03:40.937Z,100790.66
2023-03-19T09:06:10.993Z,100798.08
2023-03-19T09:08:58.175Z,100806.92
2023-03-19T09:11:27.506Z,100802.86
2023-03-19T09:13:56.786Z,100788.27
2023-03-19T09:16:26.429Z,100789.59
2023-03-19T09:18:59.225Z,100789.45
2023-03-19T09:21:28.622Z,100784.90
2023-03-19T09:23:56.948Z,100788.19
2023-03-19T09:26:25.104Z,100791.36
2023-03-19T09:28:53.349Z,100786.44
2023-03-19T09:31:29.086Z,100781.97
2023-03-19T09:33:57.752Z,100785.33
2023-03-19T09:36:26.729Z,100778.80
2023-03-19T09:38:55.225Z,100776.34
2023-03-19T09:41:29.844Z,100778.23
2023-03-19T09:44:03.101Z,100774.20
2023-03-19T09:46:44.736Z,100771.83
2023-03-19T09:49:23.071Z,100770.30
2023-03-19T09:52:17.745Z,100769.21
2023-03-19T09:54:52.488Z,100770.03
2023-03-19T09:57:22.737Z,100768.14
2023-03-19T09:59:52.584Z,100767.01
2023-03-19T10:02:40.015Z,100771.29
2023-03-19T10:05:27.411Z,100772.80
2023-03-19T10:07:59.374Z,100765.54
2023-03-19T10:10:30.689Z,100763.98
2023-03-19T10:13:07.862Z,100761.95
2023-03-19T10:15:38.774Z,100755.59
2023-03-19T10:18:07.997Z,100756.12
2023-03-19T10:20:43.011Z,100751.56
2023-03-19T10:23:32.730Z,100756.44
2023-03-19T10:26:02.536Z,100752.64
2023-03-19T10:28:31.379Z,100759.81
2023-03-19T10:31:18.409Z,100748.27
2023-03-19T10:34:07.878Z,100745.02
2023-03-19T10:36:37.042Z,100739.33
2023-03-19T10:39:07.711Z,100737.44
2023-03-19T10:41:49.430Z,100734.81
2023-03-19T10:44:30.734Z,100740.54
2023-03-19T10:46:59.688Z,100739.18
2023-03-19T10:49:28.094Z,100741.02
2023-03-19T10:51:56.917Z,100735.91
2023-03-19T10:54:25.969Z,100734.44
2023-03-19T10:57:00.556Z,100737.71
2023-03-19T10:59:33.482Z,100729.13
2023-03-19T11:02:20.417Z,100738.23
2023-03-19T11:04:48.765Z,100736.91
2023-03-19T11:07:18.525Z,100735.73
2023-03-19T11:09:49.589Z,100736.68
2023-03-19T11:12:18.907Z,100738.05
2023-03-19T11:14:59.637Z,100739.14
2023-03-19T11:18:01.074Z,100735.92
2023-03-19T11:20:33.905Z,100733.44
2023-03-19T11:23:04.372Z,100737.21
2023-03-19T11:25:37.862Z,100727.15
2023-03-19T11:28:08.859Z,100724.30
2023-03-19T11:30:57.840Z,100719.56
2023-03-19T11:33:38.558Z,100718.27
2023-03-19T11:36:28.146Z,100720.80
2023-03-19T11:39:15.838Z,100717.55
2023-03-19T11:42:13.522Z,100719.00
2023-03-19T11:45:14.347Z,100714.88
2023-03-19T11:48:08.202Z,100719.33
2023-03-19T11:50:55.509Z,100714.75
2023-03-19T11:53:25.116Z,100714.02
2023-03-19T11:56:09.381Z,100713.42
2023-03-19T11:58:41.151Z,100712.64
2023-03-19T12:01:31.636Z,100714.75
2023-03-19T12:04:18.809Z,100715.48
2023-03-19T12:06:52.811Z,100707.41
2023-03-19T12:09:27.394Z,100707.43
2023-03-19T12:11:59.729Z,100706.75
2023-03-19T12:14:31.543Z,100708.30
2023-03-19T12:17:04.070Z,100705.41
2023-03-19T12:19:47.012Z,100707.86
2023-03-19T12:22:15.190Z,100703.89
2023-03-19T12:24:46.663Z,100700.38
2023-03-19T12:27:23.777Z,100700.66
2023-03-19T12:30:01.893Z,100701.17
2023-03-19T12:32:32.608Z,100705.33
2023-03-19T12:35:09.413Z,100708.44
2023-03-19T12:37:41.538Z,100708.83
2023-03-19T12:40:16.096Z,100706.55
2023-03-19T12:42:44.262Z,100701.58
2023-03-19T12:45:16.370Z,100695.40
2023-03-19T12:47:44.508Z,100701.55
2023-03-19T12:50:14.073Z,100702.06
2023-03-19T12:52:44.216Z,100701.42
2023-03-19T12:55:12.489Z,100699.41
2023-03-19T12:57:43.102Z,100691.84
2023-03-19T13:00:14.972Z,100692.60
2023-03-19T13:02:52.699Z,100696.30
2023-03-19T13:05:25.365Z,100696.84
2023-03-19T13:07:54.100Z,100694.52
2023-03-19T13:10:23.141Z,100691.10
2023-03-19T13:12:56.781Z,100685.92
2023-03-19T13:15:29.385Z,100684.99
2023-03-19T13:18:36.576Z,100690.77
2023-03-19T13:21:10.538Z,100686.58
2023-03-19T13:23:39.390Z,100683.84
2023-03-19T13:26:09.060Z,100676.33
2023-03-19T13:28:37.711Z,100678.09
2023-03-19T13:31:07.197Z,100677.09
2023-03-19T13:33:36.147Z,100672.33
2023-03-19T13:36:05.512Z,100672.52
2023-03-19T13:38:40.688Z,100668.73
2023-03-19T13:41:28.454Z,100670.41
2023-03-19T13:43:56.689Z,100675.47
2023-03-19T13:46:31.303Z,100672.15
2023-03-19T13:49:04.927Z,100667.52
2023-03-19T13:51:41.808Z,100664.77
2023-03-19T13:54:13.098Z,100659.77
2023-03-19T13:57:01.574Z,100659.98
2023-03-19T13:59:41.253Z,100653.88
2023-03-19T14:02:21.532Z,100655.93
2023-03-19T14:04:55.106Z,100651.62
2023-03-19T14:07:27.198Z,100655.71
2023-03-19T14:10:00.134Z,100655.19
2023-03-19T14:12:35.322Z,100655.42
2023-03-19T14:15:08.127Z,100654.12
2023-03-19T14:17:37.809Z,100652.08
2023-03-19T14:20:13.324Z,100647.89
2023-03-19T14:22:57.221Z,100644.87
2023-03-19T14:25:26.763Z,100647.20
2023-03-19T14:27:56.294Z,100644.63
2023-03-19T14:30:27.932Z,100646.02
2023-03-19T14:32:57.069Z,100645.55
2023-03-19T14:35:25.599Z,100642.40
2023-03-19T14:37:54.437Z,100644.19
2023-03-19T14:40:36.837Z,100643.36
2023-03-19T14:43:15.724Z,100640.78
2023-03-19T14:45:46.953Z,100636.88
2023-03-19T14:48:26.840Z,100634.11
2023-03-19T14:51:07.207Z,100637.13
2023-03-19T14:53:37.964Z,100639.83
2023-03-19T14:56:12.003Z,100637.95
2023-03-19T14:58:50.141Z,100636.79
2023-03-19T15:01:18.903Z,100635.64
2023-03-19T15:03:51.847Z,100638.41
2023-03-19T15:06:20.227Z,100636.59
2023-03-19T15:08:51.499Z,100636.65
2023-03-19T15:11:23.645Z,100637.16
2023-03-19T15:13:54.980Z,100636.69
2023-03-19T15:16:39.929Z,100636.05
2023-03-19T15:19:11.377Z,100637.80
2023-03-19T15:21:39.779Z,100637.52
2023-03-19T15:24:13.565Z,100636.91
2023-03-19T15:26:42.206Z,100634.91
2023-03-19T15:29:12.514Z,100637.52
2023-03-19T15:31:51.050Z,100634.27
2023-03-19T15:34:23.005Z,100634.96
2023-03-19T15:36:55.786Z,100638.23
2023-03-19T15:39:25.180Z,100637.02
2023-03-19T15:41:53.446Z,100635.45
2023-03-19T15:44:33.552Z,100634.02
2023-03-19T15:47:03.682Z,100635.02
2023-03-19T15:49:34.919Z,100635.36
2023-03-19T15:52:04.825Z,100637.77
2023-03-19T15:54:34.248Z,100641.06
2023-03-19T15:57:02.476Z,100642.27
2023-03-19T15:59:31.752Z,100643.10
2023-03-19T16:02:01.036Z,100643.79
2023-03-19T16:04:30.290Z,100648.10
2023-03-19T16:06:58.799Z,100651.36
2023-03-19T16:09:29.852Z,100653.40
2023-03-19T16:11:58.116Z,100653.21
2023-03-19T16:14:26.618Z,100657.83
2023-03-19T16:17:02.648Z,100658.98
2023-03-19T16:19:37.649Z,100659.32
2023-03-19T16:22:13.033Z,100662.08
2023-03-19T16:24:42.439Z,100655.52
2023-03-19T16:27:12.130Z,100653.55
2023-03-19T16:29:42.051Z,100655.59
2023-03-19T16:32:10.352Z,100652.99
2023-03-19T16:34:42.819Z,100648.52
2023-03-19T16:37:27.493Z,100646.60
2023-03-19T16:39:56.507Z,100644.04
2023-03-19T16:42:24.664Z,100644.17
2023-03-19T16:44:53.200Z,100634.84
2023-03-19T16:47:22.005Z,100640.45
2023-03-19T16:49:50.314Z,100634.73
2023-03-19T16:52:20.111Z,100634.20
2023-03-19T16:54:48.864Z,100631.64
2023-03-19T16:57:17.270Z,100631.16
2023-03-19T16:59:46.135Z,100622.55
2023-03-19T17:02:15.692Z,100622.52
2023-03-19T17:04:44.265Z,100623.04
2023-03-19T17:07:12.729Z,100625.76
2023-03-19T17:09:43.026Z,100626.09
2023-03-19T17:12:13.535Z,100627.30
2023-03-19T17:14:42.574Z,100624.89
2023-03-19T17:17:13.547Z,100621.29
2023-03-19T17:19:41.696Z,100629.83
2023-03-19T17:22:09.800Z,100636.86
2023-03-19T17:24:38.425Z,100637.92
2023-03-19T17:27:06.759Z,100638.66
2023-03-19T17:29:36.626Z,100639.23
2023-03-19T17:32:04.938Z,100642.88
2023-03-19T17:34:38.776Z,100642.91
2023-03-19T17:37:10.545Z,100642.61
2023-03-19T17:39:39.040Z,100643.65
2023-03-19T17:42:14.805Z,100643.15
2023-03-19T17:44:43.810Z,100642.81
2023-03-19T17:47:14.797Z,100644.34
2023-03-19T17:49:45.367Z,100640.40
2023-03-19T17:52:16.972Z,100642.11
2023-03-19T17:54:47.144Z,100644.87
2023-03-19T17:57:16.413Z,100645.37
2023-03-19T17:59:44.620Z,100643.98
2023-03-19T18:02:26.095Z,100645.00
2023-03-19T18:04:54.642Z,100640.85
2023-03-19T18:07:23.389Z,100639.10
2023-03-19T18:09:51.635Z,100639.73
2023-03-19T18:12:19.982Z,100644.33
2023-03-19T18:14:48.159Z,100643.67
2023-03-19T18:17:17.165Z,100640.95
2023-03-19T18:19:45.784Z,100637.98
2023-03-19T18:22:14.945Z,100633.14
2023-03-19T18:24:43.234Z,100632.91
2023-03-19T18:27:11.396Z,100629.92
2023-03-19T18:29:42.577Z,100631.77
2023-03-19T18:32:12.538Z,100634.64
2023-03-19T18:34:40.813Z,100630.36
2023-03-19T18:37:11.327Z,100627.27
2023-03-19T18:39:40.608Z,100625.73
2023-03-19T18:42:10.127Z,100626.23
2023-03-19T18:44:42.759Z,100626.20
2023-03-19T18:47:12.838Z,100627.06
2023-03-19T18:49:48.465Z,100624.81
2023-03-19T18:52:19.562Z,100625.16
2023-03-19T18:54:47.977Z,100627.19
2023-03-19T18:57:16.280Z,100627.32
2023-03-19T18:59:44.795Z,100628.86
2023-03-19T19:02:19.662Z,100627.45
2023-03-19T19:04:48.151Z,100629.66
2023-03-19T19:07:16.867Z,100632.36
2023-03-19T19:09:46.424Z,100630.77
2023-03-19T19:12:15.445Z,100630.55
2023-03-19T19:14:44.463Z,100625.38
2023-03-19T19:17:19.908Z,100621.56
2023-03-19T19:19:48.159Z,100623.75
2023-03-19T19:22:17.189Z,100625.27
2023-03-19T19:24:45.465Z,100629.17
2023-03-19T19:27:24.112Z,100624.36
2023-03-19T19:29:54.097Z,100625.20
2023-03-19T19:32:25.031Z,100625.16
2023-03-19T19:34:53.262Z,100625.98
2023-03-19T19:37:23.588Z,100627.88
2023-03-19T19:39:52.245Z,100629.59
2023-03-19T19:42:21.088Z,100626.71
2023-03-19T19:44:53.744Z,100629.64
2023-03-19T19:47:21.940Z,100627.25
2023-03-19T19:49:50.462Z,100625.02
2023-03-19T19:52:19.064Z,100625.36
2023-03-19T19:54:47.346Z,100627.73
2023-03-19T19:57:21.573Z,100627.02
2023-03-19T19:59:50.049Z,100629.55
2023-03-19T20:02:25.724Z,100624.55
2023-03-19T20:04:54.422Z,100625.40
2023-03-19T20:07:22.675Z,100622.31
2023-03-19T20:09:55.060Z,100622.13
2023-03-19T20:12:28.011Z,100619.04
2023-03-19T20:14:56.130Z,100616.30
2023-03-19T20:17:24.603Z,100613.72
2023-03-19T20:19:53.465Z,100619.34
2023-03-19T20:22:21.938Z,100625.64
2023-03-19T20:24:51.508Z,100623.73
2023-03-19T20:27:23.841Z,100621.66
2023-03-19T20:29:53.924Z,100616.65
2023-03-19T20:32:26.457Z,100618.67
2023-03-19T20:34:56.117Z,100617.30
2023-03-19T20:37:24.396Z,100618.34
2023-03-19T20:39:52.571Z,100620.08
2023-03-19T20:42:20.949Z,100620.23
2023-03-19T20:44:49.079Z,100618.00
2023-03-19T20:47:19.510Z,100621.08
2023-03-19T20:49:48.191Z,100619.01
2023-03-19T20:52:17.916Z,100615.10
2023-03-19T20:54:48.296Z,100612.75
2023-03-19T20:57:17.853Z,100613.13
2023-03-19T20:59:47.561Z,100613.83
2023-03-19T21:02:16.910Z,100610.19
2023-03-19T21:04:45.921Z,100613.59
2023-03-19T21:07:36.046Z,100611.52
2023-03-19T21:10:08.122Z,100619.71
2023-03-19T21:12:44.192Z,100617.13
2023-03-19T21:15:15.232Z,100617.68
2023-03-19T21:17:44.457Z,100619.30
2023-03-19T21:20:18.358Z,100619.02
2023-03-19T21:22:47.713Z,100616.87
2023-03-19T21:25:18.908Z,100613.00
2023-03-19T21:27:51.333Z,100617.89
2023-03-19T21:30:19.844Z,100616.43
2023-03-19T21:32:49.912Z,100617.38
2023-03-19T21:35:20.169Z,100613.70
2023-03-19T21:37:48.450Z,100611.52
2023-03-19T21:40:20.269Z,100607.61
2023-03-19T21:42:52.868Z,100606.95
2023-03-19T21:45:35.601Z,100602.80
2023-03-19T21:48:22.632Z,100605.02
2023-03-19T21:50:56.487Z,100598.40
2023-03-19T21:53:24.773Z,100597.80
2023-03-19T21:55:53.314Z,100597.38
2023-03-19T21:58:28.146Z,100597.13
2023-03-19T22:00:56.570Z,100592.77
2023-03-19T22:03:25.218Z,100591.00
2023-03-19T22:05:53.789Z,100591.49
2023-03-19T22:08:22.925Z,100587.89
2023-03-19T22:10:55.656Z,100589.77
2023-03-19T22:13:24.916Z,100593.20
2023-03-19T22:16:00.669Z,100593.32
2023-03-19T22:18:32.203Z,100590.02
2023-03-19T22:21:00.460Z,100594.63
2023-03-19T22:23:30.768Z,100595.71
2023-03-19T22:26:00.620Z,100594.55
2023-03-19T22:28:33.773Z,100590.82
2023-03-19T22:31:02.568Z,100594.27
2023-03-19T22:33:31.073Z,100596.36
2023-03-19T22:36:00.822Z,100600.68
2023-03-19T22:38:29.224Z,100602.95
2023-03-19T22:40:57.383Z,100599.56
2023-03-19T22:43:25.865Z,100600.98
2023-03-19T22:45:54.811Z,100601.54
2023-03-19T22:48:25.206Z,100605.30
2023-03-19T22:50:53.463Z,100605.40
2023-03-19T22:53:26.783Z,100603.98
2023-03-19T22:55:55.781Z,100605.32
2023-03-19T22:58:24.290Z,100608.69
2023-03-19T23:00:52.799Z,100604.84
2023-03-19T23:03:25.283Z,100601.65
2023-03-19T23:05:59.139Z,100603.06
2023-03-19T23:08:27.948Z,100598.32
2023-03-19T23:10:56.685Z,100595.98
2023-03-19T23:13:30.332Z,100596.96
2023-03-19T23:16:00.130Z,100596.41
2023-03-19T23:18:31.583Z,100595.55
2023-03-19T23:21:01.134Z,100597.73
2023-03-19T23:23:29.861Z,100597.88
2023-03-19T23:25:58.075Z,100602.83
2023-03-19T23:28:31.072Z,100601.51
2023-03-19T23:30:59.269Z,100597.10
2023-03-19T23:33:28.277Z,100599.61
2023-03-19T23:35:59.520Z,100597.13
2023-03-19T23:38:28.578Z,100594.76
2023-03-19T23:40:56.890Z,100587.88
2023-03-19T23:43:25.906Z,100583.52
2023-03-19T23:45:56.575Z,100579.34
2023-03-19T23:48:26.860Z,100579.84
2023-03-19T23:51:02.758Z,100580.52
2023-03-19T23:53:31.504Z,100586.16
2023-03-19T23:56:00.589Z,100584.27
2023-03-19T23:58:40.316Z,100580.98
